PWSweather.com
Personal Weather Stations
Station Observations
CALONGE
CalongeES 17251

CalongeES 17251

Lat: 41.85972222, Lon: 3.077777778

Elevation: 16

Station Type: Oregon WMR928N

www.calonge-meteoweb.com

High Low Average
Temperature 77.7°F25.4°C 60.1°F15.6°C 69.5°F20.8°C
Dew Point 44.6°F7.0°C 22.5°F-5.3°C 31.9°F-0.1°C
Winds 13.2 mph 21.2 kmh Calm Calm 6.0 mph SSE9.7 kmh SSE
Wind Gusts 22.3 mph35.9 kmh -- 11.0 mph17.7 kmh
Humidity 53% 15% 27%
Pressure 30.21 in1023.0 mb 30.09 in1019.0 mb -
Precipitation 0.00 in0.0 mm - -
Hour Temp Dew Point Humidity Winds Wind Gusts Pressure Precip Precip Rate Daily Precip Total
12:00 AM 61.9°F16.6°C 44.6°F7.0°C 53% Calm Calm -- 30.12 in1020.0 mb 0.00 in0.0 mm 0.00 in0.0 mm 0.00 in0.0 mm
12:15 AM 62.1°F16.7°C 44.2°F6.8°C 52% Calm Calm 7.0 mph11.3 kmh 30.12 in1020.0 mb 0.00 in0.0 mm 0.00 in0.0 mm 0.00 in0.0 mm
12:30 AM 62.6°F17.0°C 42.1°F5.6°C 47% 4.7 mph N7.6 kmh N 6.4 mph10.3 kmh 30.12 in1020.0 mb 0.00 in0.0 mm 0.00 in0.0 mm 0.00 in0.0 mm
12:45 AM 63.1°F17.3°C 40.9°F4.9°C 44% 4.7 mph NW7.6 kmh NW 8.8 mph14.2 kmh 30.12 in1020.0 mb 0.00 in0.0 mm 0.00 in0.0 mm 0.00 in0.0 mm
01:00 AM 63.7°F17.6°C 39.5°F4.2°C 41% 6.4 mph NW10.3 kmh NW 11.4 mph18.3 kmh 30.12 in1020.0 mb 0.00 in0.0 mm 0.00 in0.0 mm 0.00 in0.0 mm
01:15 AM 63.9°F17.7°C 39.7°F4.3°C 41% 5.3 mph NNW8.5 kmh NNW 14.4 mph23.2 kmh 30.12 in1020.0 mb 0.00 in0.0 mm 0.00 in0.0 mm 0.00 in0.0 mm
01:30 AM 63.7°F17.6°C 39.5°F4.2°C 41% 3.5 mph NW5.6 kmh NW 13.2 mph21.2 kmh 30.12 in1020.0 mb 0.00 in0.0 mm 0.00 in0.0 mm 0.00 in0.0 mm
01:45 AM 63.5°F17.5°C 38.7°F3.7°C 40% 4.1 mph NW6.6 kmh NW 13.2 mph21.2 kmh 30.12 in1020.0 mb 0.00 in0.0 mm 0.00 in0.0 mm 0.00 in0.0 mm
02:00 AM 63.5°F17.5°C 37.4°F3.0°C 38% 5.9 mph NW9.5 kmh NW 15.5 mph24.9 kmh 30.12 in1020.0 mb 0.00 in0.0 mm 0.00 in0.0 mm 0.00 in0.0 mm
02:15 AM 63.5°F17.5°C 37.4°F3.0°C 38% 6.4 mph NW10.3 kmh NW 14.4 mph23.2 kmh 30.12 in1020.0 mb 0.00 in0.0 mm 0.00 in0.0 mm 0.00 in0.0 mm
02:30 AM 63.3°F17.4°C 37.3°F2.9°C 38% 5.3 mph NW8.5 kmh NW 13.2 mph21.2 kmh 30.15 in1021.0 mb 0.00 in0.0 mm 0.00 in0.0 mm 0.00 in0.0 mm
02:45 AM 63.1°F17.3°C 37.1°F2.8°C 38% 6.4 mph NW10.3 kmh NW 14.4 mph23.2 kmh 30.15 in1021.0 mb 0.00 in0.0 mm 0.00 in0.0 mm 0.00 in0.0 mm
03:00 AM 63.0°F17.2°C 36.9°F2.7°C 38% 6.4 mph NW10.3 kmh NW 13.8 mph22.2 kmh 30.15 in1021.0 mb 0.00 in0.0 mm 0.00 in0.0 mm 0.00 in0.0 mm
03:15 AM 62.8°F17.1°C 37.4°F3.0°C 39% 6.4 mph NW10.3 kmh NW 10.8 mph17.4 kmh 30.15 in1021.0 mb 0.00 in0.0 mm 0.00 in0.0 mm 0.00 in0.0 mm
03:30 AM 62.4°F16.9°C 37.8°F3.2°C 40% 2.9 mph NW4.7 kmh NW 13.2 mph21.2 kmh 30.15 in1021.0 mb 0.00 in0.0 mm 0.00 in0.0 mm 0.00 in0.0 mm
03:45 AM 62.2°F16.8°C 37.6°F3.1°C 40% 4.1 mph NNW6.6 kmh NNW 10.8 mph17.4 kmh 30.15 in1021.0 mb 0.00 in0.0 mm 0.00 in0.0 mm 0.00 in0.0 mm
04:00 AM 61.9°F16.6°C 37.9°F3.3°C 41% 4.1 mph N6.6 kmh N 8.8 mph14.2 kmh 30.18 in1022.0 mb 0.00 in0.0 mm 0.00 in0.0 mm 0.00 in0.0 mm
04:15 AM 61.7°F16.5°C 37.7°F3.2°C 41% 4.7 mph NNW7.6 kmh NNW 10.8 mph17.4 kmh 30.18 in1022.0 mb 0.00 in0.0 mm 0.00 in0.0 mm 0.00 in0.0 mm
04:30 AM 61.5°F16.4°C 37.6°F3.1°C 41% Calm Calm 7.6 mph12.2 kmh 30.18 in1022.0 mb 0.00 in0.0 mm 0.00 in0.0 mm 0.00 in0.0 mm
04:45 AM 61.0°F16.1°C 37.1°F2.8°C 41% Calm Calm 5.3 mph8.5 kmh 30.18 in1022.0 mb 0.00 in0.0 mm 0.00 in0.0 mm 0.00 in0.0 mm
05:00 AM 60.4°F15.8°C 37.8°F3.2°C 43% Calm Calm -- 30.18 in1022.0 mb 0.00 in0.0 mm 0.00 in0.0 mm 0.00 in0.0 mm
05:15 AM 60.1°F15.6°C 37.5°F3.1°C 43% 4.7 mph NW7.6 kmh NW 7.6 mph12.2 kmh 30.18 in1022.0 mb 0.00 in0.0 mm 0.00 in0.0 mm 0.00 in0.0 mm
05:30 AM 60.4°F15.8°C 37.2°F2.9°C 42% Calm Calm 8.2 mph13.2 kmh 30.18 in1022.0 mb 0.00 in0.0 mm 0.00 in0.0 mm 0.00 in0.0 mm
05:45 AM 60.6°F15.9°C 36.1°F2.3°C 40% 7.0 mph NW11.3 kmh NW 10.5 mph16.9 kmh 30.18 in1022.0 mb 0.00 in0.0 mm 0.00 in0.0 mm 0.00 in0.0 mm
06:00 AM 61.2°F16.2°C 36.0°F2.2°C 39% 7.0 mph NW11.3 kmh NW 12.6 mph20.3 kmh 30.18 in1022.0 mb 0.00 in0.0 mm 0.00 in0.0 mm 0.00 in0.0 mm
06:15 AM 61.5°F16.4°C 36.3°F2.4°C 39% 8.2 mph NW13.2 kmh NW 13.8 mph22.2 kmh 30.15 in1021.0 mb 0.00 in0.0 mm 0.00 in0.0 mm 0.00 in0.0 mm
06:30 AM 61.7°F16.5°C 36.5°F2.5°C 39% 6.4 mph NNW10.3 kmh NNW 13.2 mph21.2 kmh 30.18 in1022.0 mb 0.00 in0.0 mm 0.00 in0.0 mm 0.00 in0.0 mm
06:45 AM 61.7°F16.5°C 36.5°F2.5°C 39% Calm Calm 7.6 mph12.2 kmh 30.18 in1022.0 mb 0.00 in0.0 mm 0.00 in0.0 mm 0.00 in0.0 mm
07:00 AM 62.2°F16.8°C 37.6°F3.1°C 40% 3.5 mph ENE5.6 kmh ENE 7.6 mph12.2 kmh 30.18 in1022.0 mb 0.00 in0.0 mm 0.00 in0.0 mm 0.00 in0.0 mm
07:15 AM 63.3°F17.4°C 36.6°F2.6°C 37% 6.4 mph NW10.3 kmh NW 13.2 mph21.2 kmh 30.18 in1022.0 mb 0.00 in0.0 mm 0.00 in0.0 mm 0.00 in0.0 mm
07:30 AM 64.2°F17.9°C 36.7°F2.6°C 36% 10.0 mph NW16.1 kmh NW 16.7 mph26.9 kmh 30.18 in1022.0 mb 0.00 in0.0 mm 0.00 in0.0 mm 0.00 in0.0 mm
07:45 AM 64.8°F18.2°C 37.2°F2.9°C 36% 7.6 mph NW12.2 kmh NW 14.4 mph23.2 kmh 30.18 in1022.0 mb 0.00 in0.0 mm 0.00 in0.0 mm 0.00 in0.0 mm
08:00 AM 65.8°F18.8°C 37.4°F3.0°C 35% 6.4 mph WNW10.3 kmh WNW 9.4 mph15.1 kmh 30.18 in1022.0 mb 0.00 in0.0 mm 0.00 in0.0 mm 0.00 in0.0 mm
08:15 AM 67.1°F19.5°C 37.8°F3.2°C 34% 4.1 mph NNE6.6 kmh NNE 6.4 mph10.3 kmh 30.18 in1022.0 mb 0.00 in0.0 mm 0.00 in0.0 mm 0.00 in0.0 mm
08:30 AM 68.2°F20.1°C 37.2°F2.9°C 32% 4.1 mph N6.6 kmh N 10.0 mph16.1 kmh 30.18 in1022.0 mb 0.00 in0.0 mm 0.00 in0.0 mm 0.00 in0.0 mm
08:45 AM 68.9°F20.5°C 37.0°F2.8°C 31% Calm Calm 8.2 mph13.2 kmh 30.18 in1022.0 mb 0.00 in0.0 mm 0.00 in0.0 mm 0.00 in0.0 mm
09:00 AM 70.0°F21.1°C 37.1°F2.8°C 30% Calm Calm 10.0 mph16.1 kmh 30.18 in1022.0 mb 0.00 in0.0 mm 0.00 in0.0 mm 0.00 in0.0 mm
09:15 AM 70.9°F21.6°C 33.3°F0.7°C 25% 5.9 mph NNW9.5 kmh NNW 7.6 mph12.2 kmh 30.18 in1022.0 mb 0.00 in0.0 mm 0.00 in0.0 mm 0.00 in0.0 mm
09:30 AM 71.8°F22.1°C 34.0°F1.1°C 25% 5.9 mph NE9.5 kmh NE 10.8 mph17.4 kmh 30.18 in1022.0 mb 0.00 in0.0 mm 0.00 in0.0 mm 0.00 in0.0 mm
09:45 AM 73.0°F22.8°C 34.1°F1.2°C 24% 10.5 mph E16.9 kmh E 14.4 mph23.2 kmh 30.18 in1022.0 mb 0.00 in0.0 mm 0.00 in0.0 mm 0.00 in0.0 mm
10:00 AM 73.6°F23.1°C 35.6°F2.0°C 25% 10.0 mph E16.1 kmh E 17.3 mph27.8 kmh 30.18 in1022.0 mb 0.00 in0.0 mm 0.00 in0.0 mm 0.00 in0.0 mm
10:15 AM 74.1°F23.4°C 35.0°F1.7°C 24% 10.0 mph E16.1 kmh E 14.4 mph23.2 kmh 30.18 in1022.0 mb 0.00 in0.0 mm 0.00 in0.0 mm 0.00 in0.0 mm
10:30 AM 73.9°F23.3°C 32.7°F0.4°C 22% 5.9 mph NE9.5 kmh NE 13.8 mph22.2 kmh 30.18 in1022.0 mb 0.00 in0.0 mm 0.00 in0.0 mm 0.00 in0.0 mm
10:45 AM 74.5°F23.6°C 34.2°F1.2°C 23% 9.4 mph E15.1 kmh E 13.8 mph22.2 kmh 30.18 in1022.0 mb 0.00 in0.0 mm 0.00 in0.0 mm 0.00 in0.0 mm
11:00 AM 74.7°F23.7°C 34.4°F1.3°C 23% 10.8 mph ENE17.4 kmh ENE 16.7 mph26.9 kmh 30.18 in1022.0 mb 0.00 in0.0 mm 0.00 in0.0 mm 0.00 in0.0 mm
11:15 AM 74.8°F23.8°C 33.4°F0.8°C 22% 5.9 mph NE9.5 kmh NE 10.0 mph16.1 kmh 30.18 in1022.0 mb 0.00 in0.0 mm 0.00 in0.0 mm 0.00 in0.0 mm
11:30 AM 75.2°F24.0°C 32.6°F0.3°C 21% 10.0 mph ENE16.1 kmh ENE 22.3 mph35.9 kmh 30.18 in1022.0 mb 0.00 in0.0 mm 0.00 in0.0 mm 0.00 in0.0 mm
11:45 AM 75.0°F23.9°C 33.6°F0.9°C 22% 8.2 mph NE13.2 kmh NE 17.3 mph27.8 kmh 30.21 in1023.0 mb 0.00 in0.0 mm 0.00 in0.0 mm 0.00 in0.0 mm
12:00 PM 75.4°F24.1°C 33.9°F1.1°C 22% 7.6 mph ENE12.2 kmh ENE 15.5 mph24.9 kmh 30.18 in1022.0 mb 0.00 in0.0 mm 0.00 in0.0 mm 0.00 in0.0 mm
12:15 PM 75.4°F24.1°C 32.7°F0.4°C 21% 10.8 mph ENE17.4 kmh ENE 20.2 mph32.5 kmh 30.18 in1022.0 mb 0.00 in0.0 mm 0.00 in0.0 mm 0.00 in0.0 mm
12:30 PM 76.1°F24.5°C 32.1°F0.1°C 20% 12.0 mph ENE19.3 kmh ENE 19.0 mph30.6 kmh 30.18 in1022.0 mb 0.00 in0.0 mm 0.00 in0.0 mm 0.00 in0.0 mm
12:45 PM 76.5°F24.7°C 29.8°F-1.2°C 18% 8.8 mph NE14.2 kmh NE 14.4 mph23.2 kmh 30.18 in1022.0 mb 0.00 in0.0 mm 0.00 in0.0 mm 0.00 in0.0 mm
01:00 PM 76.6°F24.8°C 29.9°F-1.2°C 18% 10.8 mph E17.4 kmh E 20.2 mph32.5 kmh 30.18 in1022.0 mb 0.00 in0.0 mm 0.00 in0.0 mm 0.00 in0.0 mm
01:15 PM 76.1°F24.5°C 29.5°F-1.4°C 18% 5.3 mph NNE8.5 kmh NNE 14.4 mph23.2 kmh 30.18 in1022.0 mb 0.00 in0.0 mm 0.00 in0.0 mm 0.00 in0.0 mm
01:30 PM 76.5°F24.7°C 29.8°F-1.2°C 18% 9.4 mph NNE15.1 kmh NNE 14.4 mph23.2 kmh 30.18 in1022.0 mb 0.00 in0.0 mm 0.00 in0.0 mm 0.00 in0.0 mm
01:45 PM 77.0°F25.0°C 30.2°F-1.0°C 18% 5.3 mph NNE8.5 kmh NNE 12.0 mph19.3 kmh 30.18 in1022.0 mb 0.00 in0.0 mm 0.00 in0.0 mm 0.00 in0.0 mm
02:00 PM 77.0°F25.0°C 25.8°F-3.4°C 15% 7.6 mph NE12.2 kmh NE 16.7 mph26.9 kmh 30.18 in1022.0 mb 0.00 in0.0 mm 0.00 in0.0 mm 0.00 in0.0 mm
02:15 PM 77.2°F25.1°C 25.9°F-3.4°C 15% 3.5 mph NE5.6 kmh NE 10.8 mph17.4 kmh 30.18 in1022.0 mb 0.00 in0.0 mm 0.00 in0.0 mm 0.00 in0.0 mm
02:30 PM 77.4°F25.2°C 26.1°F-3.3°C 15% 5.9 mph NE9.5 kmh NE 13.2 mph21.2 kmh 30.18 in1022.0 mb 0.00 in0.0 mm 0.00 in0.0 mm 0.00 in0.0 mm
02:45 PM 77.5°F25.3°C 26.2°F-3.2°C 15% 7.6 mph ENE12.2 kmh ENE 16.7 mph26.9 kmh 30.18 in1022.0 mb 0.00 in0.0 mm 0.00 in0.0 mm 0.00 in0.0 mm
03:00 PM 77.7°F25.4°C 26.4°F-3.1°C 15% 13.2 mph E21.2 kmh E 19.6 mph31.5 kmh 30.15 in1021.0 mb 0.00 in0.0 mm 0.00 in0.0 mm 0.00 in0.0 mm
03:15 PM 77.7°F25.4°C 30.8°F-0.7°C 18% 8.8 mph E14.2 kmh E 17.3 mph27.8 kmh 30.15 in1021.0 mb 0.00 in0.0 mm 0.00 in0.0 mm 0.00 in0.0 mm
03:30 PM 77.5°F25.3°C 26.2°F-3.2°C 15% 11.4 mph E18.3 kmh E 14.4 mph23.2 kmh 30.15 in1021.0 mb 0.00 in0.0 mm 0.00 in0.0 mm 0.00 in0.0 mm
03:45 PM 77.2°F25.1°C 25.9°F-3.4°C 15% 10.8 mph E17.4 kmh E 16.1 mph25.9 kmh 30.15 in1021.0 mb 0.00 in0.0 mm 0.00 in0.0 mm 0.00 in0.0 mm
04:00 PM 76.8°F24.9°C 25.6°F-3.6°C 15% 8.2 mph E13.2 kmh E 17.3 mph27.8 kmh 30.15 in1021.0 mb 0.00 in0.0 mm 0.00 in0.0 mm 0.00 in0.0 mm
04:15 PM 77.4°F25.2°C 26.1°F-3.3°C 15% 10.0 mph E16.1 kmh E 16.1 mph25.9 kmh 30.15 in1021.0 mb 0.00 in0.0 mm 0.00 in0.0 mm 0.00 in0.0 mm
04:30 PM 77.4°F25.2°C 26.1°F-3.3°C 15% 10.5 mph E16.9 kmh E 13.8 mph22.2 kmh 30.15 in1021.0 mb 0.00 in0.0 mm 0.00 in0.0 mm 0.00 in0.0 mm
04:45 PM 77.4°F25.2°C 26.1°F-3.3°C 15% 10.0 mph E16.1 kmh E 11.4 mph18.3 kmh 30.12 in1020.0 mb 0.00 in0.0 mm 0.00 in0.0 mm 0.00 in0.0 mm
05:00 PM 77.4°F25.2°C 26.1°F-3.3°C 15% 8.2 mph E13.2 kmh E 13.8 mph22.2 kmh 30.12 in1020.0 mb 0.00 in0.0 mm 0.00 in0.0 mm 0.00 in0.0 mm
05:15 PM 77.0°F25.0°C 25.8°F-3.4°C 15% 6.4 mph ENE10.3 kmh ENE 12.0 mph19.3 kmh 30.12 in1020.0 mb 0.00 in0.0 mm 0.00 in0.0 mm 0.00 in0.0 mm
05:30 PM 77.0°F25.0°C 25.8°F-3.4°C 15% 8.8 mph ENE14.2 kmh ENE 11.4 mph18.3 kmh 30.12 in1020.0 mb 0.00 in0.0 mm 0.00 in0.0 mm 0.00 in0.0 mm
05:45 PM 77.0°F25.0°C 25.8°F-3.4°C 15% 7.0 mph E11.3 kmh E 11.4 mph18.3 kmh 30.12 in1020.0 mb 0.00 in0.0 mm 0.00 in0.0 mm 0.00 in0.0 mm
06:00 PM 76.6°F24.8°C 25.5°F-3.6°C 15% 7.6 mph ENE12.2 kmh ENE 11.4 mph18.3 kmh 30.12 in1020.0 mb 0.00 in0.0 mm 0.00 in0.0 mm 0.00 in0.0 mm
06:15 PM 76.3°F24.6°C 25.2°F-3.8°C 15% 7.0 mph E11.3 kmh E 10.8 mph17.4 kmh 30.12 in1020.0 mb 0.00 in0.0 mm 0.00 in0.0 mm 0.00 in0.0 mm
06:30 PM 75.9°F24.4°C 24.9°F-3.9°C 15% 7.0 mph E11.3 kmh E 10.5 mph16.9 kmh 30.12 in1020.0 mb 0.00 in0.0 mm 0.00 in0.0 mm 0.00 in0.0 mm
06:45 PM 75.6°F24.2°C 24.6°F-4.1°C 15% 7.0 mph E11.3 kmh E 11.4 mph18.3 kmh 30.12 in1020.0 mb 0.00 in0.0 mm 0.00 in0.0 mm 0.00 in0.0 mm
07:00 PM 75.2°F24.0°C 24.3°F-4.3°C 15% 5.3 mph E8.5 kmh E 8.2 mph13.2 kmh 30.12 in1020.0 mb 0.00 in0.0 mm 0.00 in0.0 mm 0.00 in0.0 mm
07:15 PM 75.0°F23.9°C 25.7°F-3.5°C 16% Calm Calm 7.6 mph12.2 kmh 30.12 in1020.0 mb 0.00 in0.0 mm 0.00 in0.0 mm 0.00 in0.0 mm
07:30 PM 74.5°F23.6°C 25.3°F-3.7°C 16% 3.5 mph E5.6 kmh E 5.3 mph8.5 kmh 30.12 in1020.0 mb 0.00 in0.0 mm 0.00 in0.0 mm 0.00 in0.0 mm
07:45 PM 73.4°F23.0°C 24.4°F-4.2°C 16% Calm Calm -- 30.09 in1019.0 mb 0.00 in0.0 mm 0.00 in0.0 mm 0.00 in0.0 mm
08:00 PM 72.5°F22.5°C 23.7°F-4.6°C 16% Calm Calm -- 30.09 in1019.0 mb 0.00 in0.0 mm 0.00 in0.0 mm 0.00 in0.0 mm
08:15 PM 71.1°F21.7°C 24.0°F-4.4°C 17% Calm Calm -- 30.09 in1019.0 mb 0.00 in0.0 mm 0.00 in0.0 mm 0.00 in0.0 mm
08:30 PM 69.3°F20.7°C 22.5°F-5.3°C 17% Calm Calm -- 30.09 in1019.0 mb 0.00 in0.0 mm 0.00 in0.0 mm 0.00 in0.0 mm
08:45 PM 68.7°F20.4°C 26.0°F-3.3°C 20% 2.9 mph W4.7 kmh W 5.9 mph9.5 kmh 30.09 in1019.0 mb 0.00 in0.0 mm 0.00 in0.0 mm 0.00 in0.0 mm
09:00 PM 68.5°F20.3°C 25.8°F-3.4°C 20% Calm Calm 5.3 mph8.5 kmh 30.12 in1020.0 mb 0.00 in0.0 mm 0.00 in0.0 mm 0.00 in0.0 mm
09:15 PM 68.4°F20.2°C 25.7°F-3.5°C 20% Calm Calm -- 30.12 in1020.0 mb 0.00 in0.0 mm 0.00 in0.0 mm 0.00 in0.0 mm
09:30 PM 68.0°F20.0°C 25.4°F-3.7°C 20% Calm Calm -- 30.12 in1020.0 mb 0.00 in0.0 mm 0.00 in0.0 mm 0.00 in0.0 mm
09:45 PM 67.3°F19.6°C 27.1°F-2.7°C 22% Calm Calm -- 30.12 in1020.0 mb 0.00 in0.0 mm 0.00 in0.0 mm 0.00 in0.0 mm
10:00 PM 66.7°F19.3°C 26.6°F-3.0°C 22% 3.5 mph WNW5.6 kmh WNW 5.9 mph9.5 kmh 30.12 in1020.0 mb 0.00 in0.0 mm 0.00 in0.0 mm 0.00 in0.0 mm
10:15 PM 65.8°F18.8°C 27.0°F-2.8°C 23% Calm Calm -- 30.12 in1020.0 mb 0.00 in0.0 mm 0.00 in0.0 mm 0.00 in0.0 mm
10:30 PM 65.3°F18.5°C 27.5°F-2.5°C 24% 4.7 mph W7.6 kmh W 5.3 mph8.5 kmh 30.12 in1020.0 mb 0.00 in0.0 mm 0.00 in0.0 mm 0.00 in0.0 mm
10:45 PM 64.9°F18.3°C 27.2°F-2.7°C 24% 3.5 mph W5.6 kmh W 7.0 mph11.3 kmh 30.09 in1019.0 mb 0.00 in0.0 mm 0.00 in0.0 mm 0.00 in0.0 mm
11:00 PM 64.6°F18.1°C 26.9°F-2.8°C 24% 5.3 mph W8.5 kmh W 7.6 mph12.2 kmh 30.09 in1019.0 mb 0.00 in0.0 mm 0.00 in0.0 mm 0.00 in0.0 mm
11:15 PM 64.6°F18.1°C 26.9°F-2.8°C 24% 4.7 mph W7.6 kmh W 6.4 mph10.3 kmh 30.09 in1019.0 mb 0.00 in0.0 mm 0.00 in0.0 mm 0.00 in0.0 mm
11:30 PM 64.6°F18.1°C 26.9°F-2.8°C 24% 5.9 mph W9.5 kmh W 8.2 mph13.2 kmh 30.09 in1019.0 mb 0.00 in0.0 mm 0.00 in0.0 mm 0.00 in0.0 mm
11:45 PM 64.6°F18.1°C 26.9°F-2.8°C 24% 4.1 mph W6.6 kmh W 6.4 mph10.3 kmh 30.09 in1019.0 mb 0.00 in0.0 mm 0.00 in0.0 mm 0.00 in0.0 mm